Terminal Aerodrome Forecast
Issued by NWS

Home | Current Version | Previous Version | Text Only | Print | Product List | Glossary On
Versions: 1 2 3 4 5 6 7 8 9 10 11 12 13 14 15
000
FTUS43 KGRB 252300
TAFMTW
TAF
KMTW 252328Z 2600/2624 02007KT P6SM SCT025 BKN100
     FM260700 04005KT P6SM SCT100 BKN200
     FM261400 17004KT P6SM -SN BKN019 OVC070
     FM261800 17011KT 1 1/2SM -SN BKN018 OVC025
     FM262200 16006KT 3SM -SN OVC016=

USA.gov is the U.S. government's official web portal to all federal, state and local government web resources and services.